Pagina principale
METAR-TAF:

METAR-TAF

Aeroporti :

Bad Vöslau, Austria

latitudine: 47-57-52N, longitudine: 016-15-34E, altezza: 233 m

Osservazione

Il bollettino è stato emesso 51 minuti fa, alle 10:00 UTC
Vento 12 kt da sud-est
Temperature 2°C
Umidità 64%
Pressione

METAR: LOAV 091000Z 14012KT 30KM BKN050SC 02/M04

Ora: 11:51 (10:51 UTC)

Previsione

Il bollettino è stato emesso 2 ore e 51 minuti fa, alle 08:00 UTC
Previsione valida dal 09 alle 09 UTC al 09 alle 18 UTC
Vento 10 kt da sud-est
Visibilità 10 km o più
Nubi sparse ad un'altezza di 4000 ft

TAF: LOAV 090800Z 0909/0918 13010KT 9999 SCT040

Osservazioni e previsioni meteorologiche di più di 4000 aeroporti (messaggi METAR e TAF).

Le stazioni disponibili sono rappresentate dai dischi gialli e rossi sulla carta.

Puntare il mouse per vedere il nome della stazione.

Clicca sopra per visualizzare le osservazioni e previsioni meteorologiche.

Per cambiare la mappa : fare clic sui pulsanti verdi con una croce nera per ingrandire, il pulsante verde con un trattino per diminuire, o sulla freccia verde per le mappe adiacenti.


METAR-TAF: